Time;durP1;ratioP1;P1;durP2;ratioP2;P2;SDS_P1;SDS_P2;PMS_P1;PMS_P2;Temp;Humidity;BMP_temperature;BMP_pressure;BME280_temperature;BME280_humidity;BME280_pressure;Samples;Min_cycle;Max_cycle;Signal;HPM_P1;HPM_P2
2023/09/01 00:00:17;;;;;;;9.85;5.35;;;13.30;99.90;;;;;;5053581;28;20059;-62
2023/09/01 00:02:43;;;;;;;8.00;5.38;;;13.30;99.90;;;;;;5074330;28;20441;-63
2023/09/01 00:05:10;;;;;;;7.07;5.40;;;13.20;99.90;;;;;;5057083;28;20041;-64
2023/09/01 00:07:36;;;;;;;6.85;5.35;;;13.30;99.90;;;;;;5075686;28;20110;-64
2023/09/01 00:10:04;;;;;;;6.75;5.38;;;13.20;99.90;;;;;;5075530;28;20063;-63
2023/09/01 00:12:31;;;;;;;5.97;4.85;;;13.20;99.90;;;;;;5074944;28;20048;-63
2023/09/01 00:14:58;;;;;;;7.70;5.00;;;13.20;99.90;;;;;;5054194;28;20053;-64
2023/09/01 00:17:24;;;;;;;8.15;5.38;;;13.30;99.90;;;;;;5070030;28;20471;-63
2023/09/01 00:19:50;;;;;;;6.90;5.47;;;13.20;99.90;;;;;;5074984;28;20105;-63
2023/09/01 00:22:16;;;;;;;6.50;5.30;;;13.20;99.90;;;;;;5074795;28;20086;-63
2023/09/01 00:24:43;;;;;;;7.68;5.45;;;13.30;99.90;;;;;;5074649;28;20048;-64
2023/09/01 00:27:18;;;;;;;9.40;5.85;;;13.30;99.90;;;;;;5074791;28;20435;-64
2023/09/01 00:29:45;;;;;;;6.43;5.30;;;13.30;99.90;;;;;;5074953;28;20765;-63
2023/09/01 00:32:11;;;;;;;8.50;5.68;;;13.30;99.90;;;;;;5074393;28;20055;-63
2023/09/01 00:34:37;;;;;;;7.80;5.30;;;13.20;99.90;;;;;;5073965;28;20045;-64
2023/09/01 00:37:03;;;;;;;7.70;5.20;;;13.20;99.90;;;;;;5067297;28;20053;-63
2023/09/01 00:39:30;;;;;;;7.80;5.82;;;13.20;99.90;;;;;;5074752;28;20048;-64
2023/09/01 00:41:56;;;;;;;9.75;5.95;;;13.10;99.90;;;;;;5074643;28;20064;-68
2023/09/01 00:44:22;;;;;;;10.05;5.97;;;13.20;99.90;;;;;;5074165;28;20066;-63
2023/09/01 00:46:49;;;;;;;6.75;5.57;;;13.10;99.90;;;;;;5056145;28;20052;-63
2023/09/01 00:49:18;;;;;;;9.23;5.65;;;13.10;99.90;;;;;;5074852;28;20060;-62
2023/09/01 00:51:48;;;;;;;7.28;6.00;;;13.10;99.90;;;;;;5056328;28;20049;-64
2023/09/01 00:54:15;;;;;;;7.05;5.93;;;13.00;99.90;;;;;;5074604;28;20106;-63
2023/09/01 00:56:43;;;;;;;7.18;5.80;;;13.00;99.90;;;;;;5055985;28;20048;-63
2023/09/01 00:59:09;;;;;;;7.30;5.72;;;13.00;99.90;;;;;;5074672;28;20045;-64
2023/09/01 01:01:36;;;;;;;8.13;5.72;;;13.00;99.90;;;;;;5074120;28;20055;-62
2023/09/01 01:04:07;;;;;;;8.57;5.50;;;12.90;99.90;;;;;;5074377;28;20044;-62
2023/09/01 01:06:44;;;;;;;7.78;5.80;;;12.90;99.90;;;;;;5073748;28;20048;-63
2023/09/01 01:09:27;;;;;;;6.95;5.75;;;12.90;99.90;;;;;;5057305;28;20456;-63
2023/09/01 01:12:10;;;;;;;;;;;12.90;99.90;;;;;;5074181;28;20045;-63
2023/09/01 01:14:45;;;;;;;7.95;5.40;;;12.90;99.90;;;;;;5074204;28;20252;-63
2023/09/01 01:17:18;;;;;;;6.55;5.82;;;12.90;99.90;;;;;;5033487;28;20426;-63
2023/09/01 01:20:37;;;;;;;7.63;5.88;;;12.90;99.90;;;;;;5051801;28;20060;-62
2023/09/01 01:23:11;;;;;;;9.45;5.70;;;12.90;99.90;;;;;;5054259;28;20103;-63
2023/09/01 01:25:49;;;;;;;6.85;5.60;;;12.90;99.90;;;;;;5062894;28;20044;-64
2023/09/01 01:28:15;;;;;;;7.35;5.45;;;12.90;99.90;;;;;;5073818;28;20481;-63
2023/09/01 01:30:42;;;;;;;7.88;5.75;;;12.90;99.90;;;;;;5055925;28;20056;-63
2023/09/01 01:33:14;;;;;;;9.32;5.47;;;12.90;99.90;;;;;;5073786;28;20452;-64
2023/09/01 01:36:12;;;;;;;6.72;5.32;;;12.80;99.90;;;;;;5055713;28;20484;-64
2023/09/01 01:38:42;;;;;;;6.57;4.97;;;12.80;99.90;;;;;;5073694;28;20044;-64
2023/09/01 01:41:13;;;;;;;8.60;4.90;;;12.70;99.90;;;;;;5073298;28;20055;-64
2023/09/01 01:43:42;;;;;;;;;;;12.80;99.90;;;;;;5073803;28;20124;-64
2023/09/01 01:46:08;;;;;;;9.90;4.53;;;12.70;99.90;;;;;;5065761;28;19928;-64
2023/09/01 01:48:37;;;;;;;6.05;4.40;;;12.70;99.90;;;;;;5073566;28;20514;-63
2023/09/01 01:51:05;;;;;;;7.60;4.63;;;12.70;99.90;;;;;;5072843;28;20057;-63
2023/09/01 01:53:36;;;;;;;8.52;4.43;;;12.70;99.90;;;;;;5073560;28;20048;-62
2023/09/01 01:56:03;;;;;;;7.40;5.03;;;12.70;99.90;;;;;;5056179;28;20048;-62
2023/09/01 01:58:31;;;;;;;7.65;4.82;;;12.80;99.90;;;;;;5055500;28;20347;-63
2023/09/01 02:00:58;;;;;;;7.60;5.05;;;12.70;99.90;;;;;;5072989;28;20058;-63
2023/09/01 02:03:24;;;;;;;7.43;4.72;;;12.70;99.90;;;;;;5073304;28;20044;-64
2023/09/01 02:05:57;;;;;;;7.63;4.85;;;12.70;99.90;;;;;;5065462;28;20110;-63
2023/09/01 02:08:23;;;;;;;7.95;5.07;;;12.70;99.90;;;;;;5073367;28;20118;-63
2023/09/01 02:10:50;;;;;;;5.95;4.10;;;12.80;99.90;;;;;;5055298;28;20143;-63
2023/09/01 02:13:16;;;;;;;7.38;5.00;;;12.80;99.90;;;;;;5073296;28;20072;-64
2023/09/01 02:15:55;;;;;;;5.93;4.28;;;12.80;99.90;;;;;;5072541;28;20441;-64
2023/09/01 02:18:36;;;;;;;5.80;4.35;;;12.80;99.90;;;;;;5072867;28;20098;-63
2023/09/01 02:21:02;;;;;;;6.15;4.25;;;12.90;99.90;;;;;;5072605;28;20048;-63
2023/09/01 02:23:28;;;;;;;6.53;4.53;;;12.90;99.90;;;;;;5072425;28;20049;-63
2023/09/01 02:25:55;;;;;;;6.22;4.93;;;12.80;99.90;;;;;;5065167;28;20049;-64
2023/09/01 02:28:22;;;;;;;5.28;3.92;;;12.80;99.90;;;;;;5054880;28;20057;-64
2023/09/01 02:30:48;;;;;;;6.30;3.97;;;12.90;99.90;;;;;;5072405;28;20067;-63
2023/09/01 02:33:14;;;;;;;6.55;4.40;;;12.80;99.90;;;;;;5072739;28;20057;-65
2023/09/01 02:35:44;;;;;;;7.30;4.63;;;12.90;99.90;;;;;;5071913;28;20052;-64
2023/09/01 02:38:11;;;;;;;6.30;4.47;;;12.90;99.90;;;;;;5072218;28;20135;-63
2023/09/01 02:40:39;;;;;;;8.27;4.57;;;12.90;99.90;;;;;;5072359;28;20044;-64
2023/09/01 02:43:17;;;;;;;8.57;4.93;;;12.80;99.90;;;;;;5072195;28;20126;-63
2023/09/01 02:45:44;;;;;;;7.53;4.57;;;12.90;99.90;;;;;;5052294;28;20540;-63
2023/09/01 02:48:11;;;;;;;6.82;4.75;;;12.80;99.90;;;;;;5072493;28;20102;-63
2023/09/01 02:50:37;;;;;;;6.75;4.72;;;12.70;99.90;;;;;;5071708;28;20055;-64
2023/09/01 02:53:04;;;;;;;6.68;4.90;;;12.80;99.90;;;;;;5072571;28;20410;-63
2023/09/01 02:55:31;;;;;;;6.68;4.88;;;12.70;99.90;;;;;;5037610;28;20480;-64
2023/09/01 02:57:57;;;;;;;5.80;4.72;;;12.70;99.90;;;;;;5072386;28;20094;-64
2023/09/01 03:00:25;;;;;;;7.72;5.35;;;12.70;99.90;;;;;;5037448;28;20059;-64
2023/09/01 03:02:51;;;;;;;6.40;4.57;;;12.60;99.90;;;;;;5054701;28;20102;-63
2023/09/01 03:05:17;;;;;;;6.82;4.68;;;12.60;99.90;;;;;;5066954;28;20033;-63
2023/09/01 03:07:44;;;;;;;6.95;4.82;;;12.60;99.90;;;;;;5070424;28;20143;-63
2023/09/01 03:10:11;;;;;;;6.30;4.78;;;12.50;99.90;;;;;;5037462;28;20053;-63
2023/09/01 03:12:38;;;;;;;6.70;4.82;;;12.50;99.90;;;;;;5037433;28;20052;-64
2023/09/01 03:15:11;;;;;;;5.50;4.78;;;12.40;99.90;;;;;;5054295;28;20052;-63
2023/09/01 03:17:37;;;;;;;5.93;5.00;;;12.30;99.90;;;;;;5072119;28;20067;-64
2023/09/01 03:20:05;;;;;;;5.20;4.22;;;12.30;99.90;;;;;;5072290;28;20092;-63
2023/09/01 03:22:31;;;;;;;6.68;4.38;;;12.30;99.90;;;;;;5071752;28;20045;-64
2023/09/01 03:24:58;;;;;;;7.10;4.50;;;12.20;99.90;;;;;;5070310;28;20056;-63
2023/09/01 03:27:25;;;;;;;6.32;4.35;;;12.30;99.90;;;;;;5054362;28;20492;-63
2023/09/01 03:29:56;;;;;;;8.75;4.63;;;12.20;99.90;;;;;;5071637;28;20372;-63
2023/09/01 03:32:23;;;;;;;7.63;4.55;;;12.30;99.90;;;;;;5071669;28;20053;-63
2023/09/01 03:34:50;;;;;;;8.10;4.45;;;12.20;99.90;;;;;;5071748;28;20060;-63
2023/09/01 03:37:17;;;;;;;8.57;4.97;;;12.20;99.90;;;;;;5074783;28;20060;-62
2023/09/01 03:39:43;;;;;;;6.43;4.57;;;12.30;99.90;;;;;;5076264;28;20121;-62
2023/09/01 03:42:09;;;;;;;6.65;4.85;;;12.20;99.90;;;;;;5075735;28;20044;-63
2023/09/01 03:44:35;;;;;;;7.60;4.30;;;12.20;99.90;;;;;;5076031;28;20143;-63
2023/09/01 03:47:02;;;;;;;7.07;4.53;;;12.20;99.90;;;;;;5069386;28;20404;-63
2023/09/01 03:49:28;;;;;;;7.32;4.45;;;12.20;99.90;;;;;;5075617;28;20096;-64
2023/09/01 03:51:55;;;;;;;7.22;4.57;;;12.20;99.90;;;;;;5057516;28;20056;-63
2023/09/01 03:54:21;;;;;;;6.45;4.40;;;12.20;99.90;;;;;;5058230;28;20056;-63
2023/09/01 03:56:47;;;;;;;6.82;4.30;;;12.20;99.90;;;;;;5075222;28;20113;-63
2023/09/01 03:59:18;;;;;;;8.18;4.57;;;12.20;99.90;;;;;;5075477;28;20044;-63
2023/09/01 04:01:46;;;;;;;7.75;4.68;;;12.20;99.90;;;;;;5057208;28;20052;-63
2023/09/01 04:04:13;;;;;;;6.60;4.57;;;12.20;99.90;;;;;;5057747;28;20052;-63
2023/09/01 04:06:43;;;;;;;8.98;5.00;;;12.20;99.90;;;;;;5068283;28;20041;-63
2023/09/01 04:09:11;;;;;;;7.03;5.35;;;12.20;99.90;;;;;;5075445;28;20106;-63
2023/09/01 04:11:37;;;;;;;7.20;4.85;;;12.20;99.90;;;;;;5074902;28;20118;-63
2023/09/01 04:14:04;;;;;;;8.45;5.32;;;12.20;99.90;;;;;;5075223;28;20049;-64
2023/09/01 04:16:30;;;;;;;8.43;4.82;;;12.10;99.90;;;;;;5075156;28;20049;-63
2023/09/01 04:18:56;;;;;;;9.35;6.25;;;12.10;99.90;;;;;;5075081;28;20121;-63
2023/09/01 04:21:23;;;;;;;8.07;6.03;;;12.20;99.90;;;;;;5074514;28;20052;-63
2023/09/01 04:23:49;;;;;;;10.38;6.53;;;12.30;99.90;;;;;;5075208;28;20178;-63
2023/09/01 04:26:15;;;;;;;8.35;6.03;;;12.30;99.90;;;;;;5068670;28;20040;-64
2023/09/01 04:28:42;;;;;;;8.48;5.13;;;12.20;99.90;;;;;;5057162;28;20146;-64
2023/09/01 04:31:29;;;;;;;6.10;5.30;;;12.30;99.90;;;;;;5074154;28;20063;-64
2023/09/01 04:33:56;;;;;;;7.65;4.70;;;12.30;99.90;;;;;;5056927;28;20135;-64
2023/09/01 04:36:23;;;;;;;8.68;4.70;;;12.30;99.90;;;;;;5074667;28;20049;-64
2023/09/01 04:38:52;;;;;;;6.70;5.22;;;12.30;99.90;;;;;;5057460;28;20048;-63
2023/09/01 04:41:18;;;;;;;9.27;5.38;;;12.20;99.90;;;;;;5040012;28;20052;-63
2023/09/01 04:43:45;;;;;;;8.20;5.20;;;12.30;99.90;;;;;;5074461;28;20186;-63
2023/09/01 04:46:11;;;;;;;6.47;4.50;;;12.20;99.90;;;;;;5067912;28;20055;-64
2023/09/01 04:48:37;;;;;;;8.18;5.15;;;12.20;99.90;;;;;;5074326;28;20052;-64
2023/09/01 04:51:03;;;;;;;6.35;4.55;;;12.10;99.90;;;;;;5074467;28;20502;-63
2023/09/01 04:53:30;;;;;;;8.55;5.22;;;12.10;99.90;;;;;;5074725;28;20136;-63
2023/09/01 04:55:56;;;;;;;7.90;5.78;;;12.20;99.90;;;;;;5074274;28;20499;-64
2023/09/01 04:58:22;;;;;;;7.38;5.47;;;12.20;99.90;;;;;;5074099;28;20330;-63
2023/09/01 05:00:53;;;;;;;10.10;6.20;;;12.10;99.90;;;;;;5074147;28;20120;-63
2023/09/01 05:03:19;;;;;;;9.05;5.78;;;12.10;99.90;;;;;;5056845;28;20048;-63
2023/09/01 05:05:47;;;;;;;8.27;5.78;;;12.10;99.90;;;;;;5049961;28;20049;-63
2023/09/01 05:08:13;;;;;;;9.82;6.07;;;12.10;99.90;;;;;;5056811;28;20048;-63
2023/09/01 05:10:40;;;;;;;9.95;6.25;;;12.00;99.90;;;;;;5074283;28;20106;-63
2023/09/01 05:13:06;;;;;;;8.48;6.40;;;12.10;99.90;;;;;;5056905;28;20052;-63
2023/09/01 05:15:32;;;;;;;7.93;6.45;;;12.10;99.90;;;;;;5074024;28;20051;-63
2023/09/01 05:17:58;;;;;;;9.10;6.75;;;12.10;99.90;;;;;;5056446;28;20044;-63
2023/09/01 05:20:25;;;;;;;11.35;7.68;;;12.10;99.90;;;;;;5073737;28;20142;-64
2023/09/01 05:22:51;;;;;;;11.23;7.28;;;12.10;99.90;;;;;;5056531;28;20082;-63
2023/09/01 05:25:18;;;;;;;11.68;7.32;;;12.10;99.90;;;;;;5052109;28;20475;-63
2023/09/01 05:27:46;;;;;;;11.90;8.43;;;12.20;99.90;;;;;;5035830;28;20429;-62
2023/09/01 05:30:15;;;;;;;10.82;7.40;;;12.20;99.90;;;;;;5073655;28;20048;-63
2023/09/01 05:32:42;;;;;;;11.07;7.93;;;12.20;99.90;;;;;;5073968;28;20056;-62
2023/09/01 05:35:08;;;;;;;14.48;8.45;;;12.20;99.90;;;;;;5073359;28;20110;-64
2023/09/01 05:37:34;;;;;;;10.07;7.75;;;12.20;99.90;;;;;;5073813;28;20097;-63
2023/09/01 05:40:01;;;;;;;12.75;8.63;;;12.30;99.90;;;;;;5073846;28;20113;-63
2023/09/01 05:42:27;;;;;;;12.27;9.20;;;12.20;99.90;;;;;;5073278;28;20056;-63
2023/09/01 05:44:57;;;;;;;11.07;8.65;;;12.20;99.90;;;;;;5073062;28;20085;-63
2023/09/01 05:47:24;;;;;;;11.18;8.60;;;12.20;99.90;;;;;;5074049;28;20101;-63
2023/09/01 05:49:57;;;;;;;11.85;9.23;;;12.40;99.90;;;;;;5073682;28;20059;-63
2023/09/01 05:52:25;;;;;;;10.55;9.05;;;12.40;99.90;;;;;;5073044;28;20121;-63
2023/09/01 05:54:52;;;;;;;13.02;9.05;;;12.50;99.90;;;;;;5072918;28;20465;-64
2023/09/01 05:57:18;;;;;;;13.70;9.55;;;12.50;99.90;;;;;;5068299;28;20048;-63
2023/09/01 05:59:45;;;;;;;12.23;9.05;;;12.60;99.90;;;;;;5072776;28;20053;-64
2023/09/01 06:02:12;;;;;;;11.45;9.13;;;12.60;99.90;;;;;;5055449;28;20056;-63
2023/09/01 06:04:39;;;;;;;10.88;9.15;;;12.60;99.90;;;;;;5055565;28;20429;-64
2023/09/01 06:07:05;;;;;;;11.85;9.68;;;12.70;99.90;;;;;;5055375;28;20403;-62
2023/09/01 06:09:32;;;;;;;15.25;10.10;;;12.80;99.90;;;;;;5073638;28;20049;-62
2023/09/01 06:11:59;;;;;;;11.70;9.52;;;12.90;99.90;;;;;;5055114;28;20127;-63
2023/09/01 06:14:25;;;;;;;13.15;9.73;;;13.00;99.90;;;;;;5073416;28;20135;-63
2023/09/01 06:16:51;;;;;;;13.15;9.73;;;13.10;99.90;;;;;;5072702;28;20059;-61
2023/09/01 06:19:18;;;;;;;13.15;9.35;;;13.30;99.90;;;;;;5072653;28;20488;-62
2023/09/01 06:21:45;;;;;;;13.43;9.52;;;13.40;99.90;;;;;;5072398;28;20105;-63
2023/09/01 06:24:11;;;;;;;11.50;9.05;;;13.40;99.90;;;;;;5073117;28;20056;-62
2023/09/01 06:26:38;;;;;;;12.57;9.45;;;13.40;99.90;;;;;;5072447;28;20110;-62
2023/09/01 06:29:04;;;;;;;16.50;10.15;;;13.40;99.90;;;;;;5073062;28;20049;-63
2023/09/01 06:31:31;;;;;;;14.65;10.27;;;13.40;99.90;;;;;;5072544;28;20469;-62
2023/09/01 06:33:57;;;;;;;11.85;9.65;;;13.60;99.90;;;;;;5072709;28;20052;-62
2023/09/01 06:36:23;;;;;;;13.27;9.52;;;13.60;99.90;;;;;;5072039;28;20053;-62
2023/09/01 06:38:52;;;;;;;14.48;9.75;;;13.80;99.90;;;;;;5072876;28;20166;-63
2023/09/01 06:41:18;;;;;;;12.60;9.73;;;13.90;99.90;;;;;;5054259;28;20075;-63
2023/09/01 06:43:44;;;;;;;13.63;9.82;;;14.00;99.90;;;;;;5072561;28;20063;-62
2023/09/01 06:46:11;;;;;;;15.05;10.70;;;14.00;99.90;;;;;;5071940;28;20467;-62
2023/09/01 06:48:38;;;;;;;15.55;10.45;;;14.10;99.90;;;;;;5054709;28;20057;-63
2023/09/01 06:51:05;;;;;;;17.63;9.88;;;14.10;99.90;;;;;;5072101;28;20113;-62
2023/09/01 06:53:33;;;;;;;14.82;9.73;;;14.20;99.90;;;;;;5054833;28;20059;-62
2023/09/01 06:55:59;;;;;;;11.30;9.18;;;14.30;99.90;;;;;;5037363;28;20063;-62
2023/09/01 06:58:25;;;;;;;12.70;9.02;;;14.30;99.90;;;;;;5072324;28;20048;-63
2023/09/01 07:01:09;;;;;;;14.70;10.63;;;14.50;99.90;;;;;;5037366;28;20136;-62
2023/09/01 07:03:36;;;;;;;14.25;9.80;;;14.60;99.90;;;;;;5038121;28;20048;-63
2023/09/01 07:06:03;;;;;;;13.27;9.88;;;14.60;99.90;;;;;;5072043;28;20045;-61
2023/09/01 07:08:30;;;;;;;14.98;9.35;;;14.80;99.90;;;;;;5072050;28;20048;-62
2023/09/01 07:11:04;;;;;;;16.88;10.50;;;14.80;99.90;;;;;;5071573;28;20730;-62
2023/09/01 07:13:31;;;;;;;14.82;10.18;;;14.90;99.90;;;;;;5072009;28;20089;-62
2023/09/01 07:15:57;;;;;;;15.60;9.82;;;14.90;99.90;;;;;;5054002;28;20178;-62
2023/09/01 07:18:25;;;;;;;14.52;9.80;;;14.80;99.90;;;;;;5054506;28;20052;-61
2023/09/01 07:20:56;;;;;;;14.85;10.60;;;14.90;99.90;;;;;;5071372;28;20060;-62
2023/09/01 07:23:22;;;;;;;16.88;10.75;;;15.00;99.90;;;;;;5071795;28;20044;-62
2023/09/01 07:25:48;;;;;;;12.75;9.32;;;15.00;99.90;;;;;;5071379;28;20041;-62
2023/09/01 07:28:16;;;;;;;13.63;9.65;;;15.10;99.90;;;;;;5054185;28;20060;-61
2023/09/01 07:30:42;;;;;;;15.43;10.20;;;15.10;99.90;;;;;;5071453;28;20461;-62
2023/09/01 07:33:08;;;;;;;14.50;10.02;;;15.10;99.90;;;;;;5071953;28;20048;-63
2023/09/01 07:35:35;;;;;;;17.10;9.95;;;15.00;99.90;;;;;;5071210;28;20500;-62
2023/09/01 07:38:03;;;;;;;14.13;10.02;;;15.10;99.90;;;;;;5054055;28;20104;-62
2023/09/01 07:40:32;;;;;;;14.18;9.77;;;15.20;99.90;;;;;;5053561;28;20052;-63
2023/09/01 07:43:00;;;;;;;13.65;10.00;;;15.30;99.90;;;;;;5053694;28;20118;-63
2023/09/01 07:45:27;;;;;;;13.15;9.73;;;15.20;99.90;;;;;;5053864;28;20412;-62
2023/09/01 07:47:53;;;;;;;16.58;10.38;;;15.30;99.90;;;;;;5071585;28;20480;-63
2023/09/01 07:50:23;;;;;;;13.65;10.15;;;15.40;99.90;;;;;;5071483;28;20048;-62
2023/09/01 07:52:52;;;;;;;14.18;9.60;;;15.40;99.90;;;;;;5054161;28;20044;-61
2023/09/01 07:55:19;;;;;;;14.30;10.02;;;15.50;99.90;;;;;;5053646;28;20048;-61
2023/09/01 07:57:45;;;;;;;14.00;9.85;;;15.70;99.90;;;;;;5071730;28;20075;-62
2023/09/01 08:00:12;;;;;;;15.30;10.05;;;15.70;99.90;;;;;;5053000;28;20051;-62
2023/09/01 08:02:38;;;;;;;14.75;10.38;;;15.90;99.90;;;;;;5071180;28;20337;-63
2023/09/01 08:05:05;;;;;;;18.00;10.30;;;15.90;99.90;;;;;;5071344;28;20056;-63
2023/09/01 08:07:31;;;;;;;15.50;9.82;;;16.00;99.90;;;;;;5071706;28;20060;-62
2023/09/01 08:09:58;;;;;;;13.60;9.43;;;16.00;99.90;;;;;;5071260;28;20114;-62
2023/09/01 08:12:27;;;;;;;16.92;9.65;;;16.10;99.90;;;;;;5071763;28;20437;-64
2023/09/01 08:14:53;;;;;;;12.43;9.68;;;16.10;99.90;;;;;;5053497;28;20052;-62
2023/09/01 08:17:21;;;;;;;13.55;9.98;;;16.20;99.90;;;;;;5053552;28;20049;-62
2023/09/01 08:19:48;;;;;;;15.63;10.57;;;16.30;99.90;;;;;;5071117;28;20059;-63
2023/09/01 08:22:16;;;;;;;15.15;10.40;;;16.40;99.90;;;;;;5054822;28;20044;-63
2023/09/01 08:24:43;;;;;;;14.85;10.13;;;16.50;99.90;;;;;;5075191;28;20055;-62
2023/09/01 08:27:10;;;;;;;13.57;11.15;;;16.60;99.90;;;;;;5074719;28;20407;-63
2023/09/01 08:29:38;;;;;;;15.10;10.23;;;16.50;99.90;;;;;;5075483;28;20052;-63
2023/09/01 08:32:05;;;;;;;14.95;10.68;;;16.60;99.90;;;;;;5075171;28;20147;-63
2023/09/01 08:34:32;;;;;;;15.10;10.25;;;16.60;99.90;;;;;;5075651;28;20056;-63
2023/09/01 08:36:58;;;;;;;15.32;10.68;;;16.70;99.90;;;;;;5074379;28;20058;-63
2023/09/01 08:39:24;;;;;;;14.60;11.02;;;16.80;99.90;;;;;;5074867;28;20044;-64
2023/09/01 08:41:52;;;;;;;13.68;10.70;;;16.80;99.90;;;;;;5074680;28;20085;-62
2023/09/01 08:44:23;;;;;;;15.20;9.98;;;16.90;99.90;;;;;;5074481;28;20045;-62
2023/09/01 08:46:53;;;;;;;12.60;9.82;;;17.00;99.90;;;;;;5040165;28;20049;-63
2023/09/01 08:49:19;;;;;;;13.18;9.70;;;17.00;99.90;;;;;;5075040;28;20055;-62
2023/09/01 08:51:49;;;;;;;14.65;10.60;;;17.10;99.90;;;;;;5074191;28;20048;-63
2023/09/01 08:54:19;;;;;;;15.10;10.32;;;17.10;99.90;;;;;;5074890;28;20048;-63
2023/09/01 08:56:45;;;;;;;14.32;10.85;;;17.20;99.90;;;;;;5057315;28;20044;-63
2023/09/01 08:59:11;;;;;;;14.13;10.05;;;17.30;99.90;;;;;;5056757;28;20472;-62
2023/09/01 09:01:38;;;;;;;11.45;9.68;;;17.40;99.90;;;;;;5074399;28;20432;-63
2023/09/01 09:04:07;;;;;;;14.73;9.57;;;17.50;99.90;;;;;;5074922;28;20143;-63
2023/09/01 09:06:36;;;;;;;13.52;8.80;;;17.70;99.90;;;;;;5056344;28;20373;-62
2023/09/01 09:09:14;;;;;;;13.88;8.63;;;17.80;99.90;;;;;;5074595;28;20049;-63
2023/09/01 09:11:59;;;;;;;11.52;8.68;;;17.80;99.90;;;;;;5074298;28;20052;-63
2023/09/01 09:14:27;;;;;;;12.60;8.30;;;17.90;99.90;;;;;;5074576;28;20063;-64
2023/09/01 09:16:56;;;;;;;11.32;8.38;;;18.10;99.90;;;;;;5039654;28;20381;-63
2023/09/01 09:19:24;;;;;;;13.65;8.95;;;18.20;99.90;;;;;;5039733;28;20052;-62
2023/09/01 09:22:07;;;;;;;15.00;9.27;;;18.10;99.90;;;;;;5056294;28;20132;-62
2023/09/01 09:24:39;;;;;;;9.95;8.20;;;18.10;99.90;;;;;;5073487;28;20048;-62
2023/09/01 09:27:38;;;;;;;13.48;9.27;;;18.30;99.90;;;;;;5056799;28;20040;-63
2023/09/01 09:30:05;;;;;;;13.02;9.07;;;18.20;99.90;;;;;;5073811;28;20435;-63
2023/09/01 09:32:31;;;;;;;13.18;7.75;;;18.20;99.90;;;;;;5073672;28;20356;-63
2023/09/01 09:35:08;;;;;;;10.35;6.82;;;18.30;99.90;;;;;;5073990;28;20063;-63
2023/09/01 09:37:37;;;;;;;10.02;6.82;;;18.30;99.90;;;;;;5073718;28;20048;-63
2023/09/01 09:40:11;;;;;;;12.85;7.07;;;18.40;99.90;;;;;;5073344;28;20376;-63
2023/09/01 09:42:41;;;;;;;13.52;7.70;;;18.30;99.90;;;;;;5055849;28;20441;-64
2023/09/01 09:45:22;;;;;;;11.02;6.85;;;18.40;99.90;;;;;;5072866;28;20048;-63
2023/09/01 09:47:49;;;;;;;14.40;7.28;;;18.30;99.90;;;;;;5036249;28;20052;-62
2023/09/01 09:50:20;;;;;;;11.82;6.85;;;18.40;99.90;;;;;;5053271;28;20610;-63
2023/09/01 09:52:50;;;;;;;13.25;7.57;;;18.50;99.90;;;;;;5036627;28;20107;-63
2023/09/01 09:55:24;;;;;;;8.82;6.03;;;18.70;99.90;;;;;;5037738;28;20155;-63
2023/09/01 09:57:52;;;;;;;10.55;5.40;;;18.60;99.90;;;;;;5074210;28;20434;-64
2023/09/01 10:00:21;;;;;;;10.85;5.53;;;18.60;99.90;;;;;;5073700;28;20044;-63
2023/09/01 10:02:53;;;;;;;11.15;5.82;;;18.60;99.90;;;;;;5056223;28;20189;-63
2023/09/01 10:05:22;;;;;;;10.82;5.45;;;18.70;99.90;;;;;;5073689;28;20048;-64
2023/09/01 10:07:50;;;;;;;12.40;6.32;;;18.70;99.90;;;;;;5073999;28;20109;-64
2023/09/01 10:10:17;;;;;;;12.38;5.88;;;18.80;99.90;;;;;;5039317;28;20057;-64
2023/09/01 10:12:43;;;;;;;9.45;6.28;;;18.80;99.90;;;;;;5055943;28;20062;-63
2023/09/01 10:15:13;;;;;;;12.48;6.50;;;18.90;99.90;;;;;;5055484;28;20052;-64
2023/09/01 10:17:42;;;;;;;11.00;5.30;;;18.80;99.90;;;;;;5035064;28;20051;-64
2023/09/01 10:20:09;;;;;;;10.50;5.70;;;18.70;99.90;;;;;;5052619;28;20176;-64
2023/09/01 10:22:38;;;;;;;10.07;5.20;;;18.80;99.90;;;;;;5053409;28;20449;-64
2023/09/01 10:25:11;;;;;;;8.13;5.28;;;18.70;99.90;;;;;;5053244;28;20049;-64
2023/09/01 10:28:05;;;;;;;11.02;5.38;;;18.70;99.90;;;;;;5073286;28;20040;-64
2023/09/01 10:30:34;;;;;;;9.68;5.07;;;18.70;99.90;;;;;;5072892;28;20114;-63
2023/09/01 10:33:12;;;;;;;9.82;5.32;;;18.80;99.90;;;;;;5073017;28;20040;-64
2023/09/01 10:35:38;;;;;;;;;;;18.70;99.90;;;;;;5072820;28;20473;-64
2023/09/01 10:38:17;;;;;;;10.32;5.20;;;18.60;99.90;;;;;;5072959;28;20000;-63
2023/09/01 10:40:48;;;;;;;10.77;6.07;;;18.60;99.90;;;;;;5072143;28;20040;-63
2023/09/01 10:43:33;;;;;;;8.80;5.22;;;18.60;99.90;;;;;;5046750;28;20103;-64
2023/09/01 10:46:14;;;;;;;11.13;5.85;;;18.60;99.90;;;;;;5052258;28;20045;-64
2023/09/01 10:48:51;;;;;;;9.65;6.38;;;18.60;99.90;;;;;;5053016;28;20049;-64
2023/09/01 10:51:20;;;;;;;9.77;5.50;;;18.70;99.90;;;;;;5052265;28;20052;-63
2023/09/01 10:53:50;;;;;;;9.98;5.80;;;18.70;99.90;;;;;;5052858;28;20049;-63
2023/09/01 10:56:16;;;;;;;12.20;5.90;;;18.80;99.90;;;;;;5052432;28;20045;-64
2023/09/01 10:58:47;;;;;;;9.32;4.90;;;18.70;99.90;;;;;;5052257;28;20378;-63
2023/09/01 11:01:24;;;;;;;8.90;5.10;;;18.90;99.90;;;;;;5034421;28;20052;-63
2023/09/01 11:03:51;;;;;;;10.07;5.70;;;18.90;99.90;;;;;;5052585;28;20045;-63
2023/09/01 11:06:17;;;;;;;9.52;5.43;;;18.80;99.90;;;;;;5052109;28;20051;-65
2023/09/01 11:09:01;;;;;;;7.70;5.63;;;18.80;99.90;;;;;;5052478;28;20052;-63
2023/09/01 11:11:29;;;;;;;7.20;5.50;;;18.90;99.90;;;;;;5052170;28;20053;-63
2023/09/01 11:14:00;;;;;;;10.88;5.78;;;18.90;99.90;;;;;;5034448;28;20048;-64
2023/09/01 11:16:27;;;;;;;7.47;5.63;;;19.00;99.90;;;;;;5052065;28;20816;-64
2023/09/01 11:19:03;;;;;;;9.02;6.28;;;19.10;99.90;;;;;;5034638;28;20057;-63
2023/09/01 11:21:30;;;;;;;8.25;5.70;;;19.10;99.90;;;;;;5051861;28;20049;-63
2023/09/01 11:24:00;;;;;;;9.57;5.90;;;19.20;99.90;;;;;;5034449;28;20429;-63
2023/09/01 11:26:27;;;;;;;9.07;6.10;;;19.20;99.90;;;;;;5051904;28;20044;-64
2023/09/01 11:28:55;;;;;;;8.50;6.05;;;19.20;99.90;;;;;;5034770;28;20350;-63
2023/09/01 11:31:22;;;;;;;9.02;6.05;;;19.10;99.90;;;;;;5051801;28;20056;-63
2023/09/01 11:33:52;;;;;;;9.90;6.53;;;19.10;99.90;;;;;;5051825;28;20045;-63
2023/09/01 11:36:19;;;;;;;9.75;6.50;;;19.10;99.90;;;;;;5034023;28;20048;-63
2023/09/01 11:38:47;;;;;;;9.25;6.90;;;19.20;99.90;;;;;;5051979;28;20053;-63
2023/09/01 11:41:18;;;;;;;10.05;6.70;;;19.20;99.90;;;;;;5051647;28;20041;-64
2023/09/01 11:43:44;;;;;;;10.80;6.90;;;19.20;99.90;;;;;;5051807;28;20053;-63
2023/09/01 11:46:11;;;;;;;10.13;6.60;;;19.30;99.90;;;;;;5051589;28;20049;-63
2023/09/01 11:48:37;;;;;;;9.68;6.38;;;19.40;99.90;;;;;;5034255;28;20045;-65
2023/09/01 11:51:08;;;;;;;12.27;6.47;;;19.50;99.90;;;;;;5051555;28;20134;-64
2023/09/01 11:53:37;;;;;;;12.95;7.03;;;19.60;99.90;;;;;;5052164;28;20537;-64
2023/09/01 11:56:35;;;;;;;10.20;7.05;;;19.70;99.90;;;;;;5033944;28;20052;-64
2023/09/01 11:59:01;;;;;;;9.95;6.68;;;19.80;99.90;;;;;;5056315;28;20187;-63
2023/09/01 12:01:34;;;;;;;9.98;7.07;;;20.00;99.90;;;;;;5055214;28;20401;-64
2023/09/01 12:04:06;;;;;;;8.73;5.82;;;20.10;99.90;;;;;;5055727;28;20049;-63
2023/09/01 12:06:44;;;;;;;9.85;6.80;;;20.10;99.90;;;;;;5055559;28;20045;-63
2023/09/01 12:09:16;;;;;;;9.68;6.95;;;20.00;99.90;;;;;;5038086;28;20045;-64
2023/09/01 12:11:56;;;;;;;11.98;6.93;;;20.00;99.90;;;;;;5037811;28;20053;-64
2023/09/01 12:14:31;;;;;;;12.20;7.03;;;20.00;99.90;;;;;;5055814;28;20049;-63
2023/09/01 12:16:59;;;;;;;11.68;7.07;;;20.10;99.90;;;;;;5055217;28;20372;-63
2023/09/01 12:19:28;;;;;;;10.93;7.07;;;20.20;99.90;;;;;;5004890;28;20382;-63
2023/09/01 12:21:56;;;;;;;14.10;7.18;;;20.30;99.90;;;;;;5055163;28;20053;-63
2023/09/01 12:24:22;;;;;;;13.63;7.57;;;20.40;99.90;;;;;;5037737;28;20059;-63
2023/09/01 12:26:49;;;;;;;13.60;7.22;;;20.50;99.90;;;;;;5055059;28;20049;-65
2023/09/01 12:29:16;;;;;;;12.30;6.65;;;20.50;99.90;;;;;;5055318;28;20049;-63
2023/09/01 12:31:42;;;;;;;10.77;7.28;;;20.50;99.90;;;;;;5037378;28;20057;-63
2023/09/01 12:34:09;;;;;;;9.18;6.68;;;20.50;99.90;;;;;;5055144;28;20053;-64
2023/09/01 12:36:40;;;;;;;8.85;6.43;;;20.50;99.90;;;;;;5054955;28;20049;-63
2023/09/01 12:39:39;;;;;;;9.75;7.40;;;20.80;99.90;;;;;;5054974;28;20056;-63
2023/09/01 12:42:05;;;;;;;8.77;6.78;;;21.10;99.90;;;;;;5037553;28;20407;-63
2023/09/01 12:44:32;;;;;;;10.90;6.45;;;21.00;99.90;;;;;;5054930;28;20497;-63
2023/09/01 12:46:58;;;;;;;9.60;6.60;;;21.30;99.90;;;;;;5054482;28;20041;-63
2023/09/01 12:49:24;;;;;;;9.27;6.25;;;21.40;99.90;;;;;;5054357;28;20461;-64